Hatchet Mtn Atmospheric Data: 05/15/2019 Summary  Detailed Graphs  Station List

  Temperature     Wind Precipitation Visibility
Timestamp Air Wet
Bulb
Dew-
point
24-hr
Max
24-hr
Min
Relative
Humidity
Atmospheric
Pressure
Avg
Speed
Avg
Dir
Spot
Speed
Spot
Dir
Max
Speed
Max
Dir
  Rate Situation Start End 1 hr 3 hr 6 hr 12 hr 24 hr   Situation
Date Time °F °F °F °F °F % in Hg mph ° mph ° mph ° Y/N in/hr text Date Time Date Time in in in in in mi text
05/15/2019 12:00 AM 47.84 44.24 40.64 59.54 47.30 75.0 Not Reported 0.00 S 0.00 SW 1.12 S No 0.000 No Precipitation     0.000 0.000 0.000 0.000 0.000 Not Reported Not Reported
05/15/2019 12:05 AM 47.84 44.24 40.64 59.54 47.30 76.0 Not Reported 0.00 NW 0.00 NW 1.12 S No 0.000 No Precipitation     0.000 0.000 0.000 0.000 0.000 Not Reported Not Reported
05/15/2019 12:10 AM 47.84 44.42 40.82 59.54 47.30 76.0 Not Reported 0.45 W 0.89 W 1.12 N No 0.000 No Precipitation     0.000 0.000 0.000 0.000 0.000 Not Reported Not Reported
05/15/2019 12:15 AM 47.84 44.42 40.82 59.54 47.30 76.0 Not Reported 1.34 NW 2.46 NW 1.12 N No 0.000 No Precipitation     0.000 0.000 0.000 0.000 0.000 Not Reported Not Reported
05/15/2019 12:20 AM 47.66 44.42 41.00 59.54 47.30 77.0 Not Reported 0.67 N 0.00 N 3.58 W No 0.000 No Precipitation     0.000 0.000 0.000 0.000 0.000 Not Reported Not Reported
05/15/2019 12:25 AM 47.84 44.60 41.18 59.54 47.30 77.0 Not Reported 0.89 W 0.45 W 3.58 W No 0.000 No Precipitation     0.000 0.000 0.000 0.000 0.000 Not Reported Not Reported
05/15/2019 12:30 AM 48.02 44.60 41.18 59.54 47.30 77.0 Not Reported 0.67 NW 1.34 W 1.57 W No 0.000 No Precipitation     0.000 0.000 0.000 0.000 0.000 Not Reported Not Reported
05/15/2019 12:35 AM 48.02 44.60 41.18 59.54 47.30 77.0 Not Reported 0.00 NW 0.00 NW 1.57 W No 0.000 No Precipitation     0.000 0.000 0.000 0.000 0.000 Not Reported Not Reported
05/15/2019 12:40 AM 48.20 44.60 41.18 59.54 47.30 76.0 Not Reported 0.00 N 0.00 SE 0.67 W No 0.000 No Precipitation     0.000 0.000 0.000 0.000 0.000 Not Reported Not Reported
05/15/2019 12:45 AM 47.84 44.60 41.18 59.54 47.30 77.0 Not Reported 0.00 N 0.00 W 0.67 W No 0.000 No Precipitation     0.000 0.000 0.000 0.000 0.000 Not Reported Not Reported
05/15/2019 12:50 AM 47.84 44.60 41.00 59.54 47.30 77.0 Not Reported 0.00 N 0.00 S 0.45 SW No 0.000 No Precipitation     0.000 0.000 0.000 0.000 0.000 Not Reported Not Reported
05/15/2019 12:55 AM 47.84 44.42 41.00 59.54 47.30 77.0 Not Reported 0.45 W 0.00 S 0.45 SW No 0.000 No Precipitation     0.000 0.000 0.000 0.000 0.000 Not Reported Not Reported
05/15/2019 01:00 AM 47.84 44.42 40.82 59.54 47.30 76.0 Not Reported 1.12 W 1.34 W 1.34 W No 0.000 No Precipitation     0.000 0.000 0.000 0.000 0.000 Not Reported Not Reported
05/15/2019 01:05 AM 47.84 44.42 40.82 59.54 47.30 76.0 Not Reported 2.24 NW 1.12 NW 1.34 W No 0.000 No Precipitation     0.000 0.000 0.000 0.000 0.000 Not Reported Not Reported
05/15/2019 01:10 AM 47.84 44.42 40.82 59.54 47.30 76.0 Not Reported 0.45 W 0.00 W 2.46 NW No 0.000 No Precipitation     0.000 0.000 0.000 0.000 0.000 Not Reported Not Reported
05/15/2019 01:15 AM 47.84 44.24 40.64 59.54 47.30 75.0 Not Reported 0.00 S 0.45 E 2.46 NW No 0.000 No Precipitation     0.000 0.000 0.000 0.000 0.000 Not Reported Not Reported
05/15/2019 01:20 AM 47.84 44.24 40.28 59.54 47.30 75.0 Not Reported 0.00 N 0.00 E 0.45 E No 0.000 No Precipitation     0.000 0.000 0.000 0.000 0.000 Not Reported Not Reported
05/15/2019 01:25 AM 47.84 44.24 40.28 59.54 47.30 74.0 Not Reported 1.34 E 0.00 E 0.45 E No 0.000 No Precipitation     0.000 0.000 0.000 0.000 0.000 Not Reported Not Reported
05/15/2019 01:30 AM 47.84 44.06 40.10 59.54 47.30 74.0 Not Reported 0.00 N 0.00 SW 2.24 E No 0.000 No Precipitation     0.000 0.000 0.000 0.000 0.000 Not Reported Not Reported
05/15/2019 01:35 AM 47.66 43.88 39.92 59.54 47.30 74.0 Not Reported 0.22 NW 0.89 W 2.24 E No 0.000 No Precipitation     0.000 0.000 0.000 0.000 0.000 Not Reported Not Reported
05/15/2019 01:40 AM 47.84 44.06 40.10 59.54 47.30 74.0 Not Reported 0.22 E 0.22 E 0.89 W No 0.000 No Precipitation     0.000 0.000 0.000 0.000 0.000 Not Reported Not Reported
05/15/2019 01:45 AM 47.66 44.06 39.92 59.54 47.30 74.0 Not Reported 0.00 N 0.00 E 0.89 W No 0.000 No Precipitation     0.000 0.000 0.000 0.000 0.000 Not Reported Not Reported
05/15/2019 01:50 AM 47.84 44.06 39.92 59.54 47.30 74.0 Not Reported 0.00 N 0.00 E 0.45 E No 0.000 No Precipitation     0.000 0.000 0.000 0.000 0.000 Not Reported Not Reported
05/15/2019 01:55 AM 47.84 44.06 40.10 59.54 47.30 74.0 Not Reported 0.00 N 0.00 NW 0.45 E No 0.000 No Precipitation     0.000 0.000 0.000 0.000 0.000 Not Reported Not Reported
05/15/2019 02:00 AM 47.84 44.06 40.10 59.54 47.30 73.0 Not Reported 0.00 N 0.00 N 0.00 SE No 0.000 No Precipitation     0.000 0.000 0.000 0.000 0.000 Not Reported Not Reported
05/15/2019 02:05 AM 47.84 44.06 39.92 59.54 47.30 74.0 Not Reported 0.45 NW 0.45 W 0.00 SE No 0.000 No Precipitation     0.000 0.000 0.000 0.000 0.000 Not Reported Not Reported
05/15/2019 02:10 AM 47.66 43.88 39.92 59.54 47.30 74.0 Not Reported 0.00 N 0.00 N 1.12 W No 0.000 No Precipitation     0.000 0.000 0.000 0.000 0.000 Not Reported Not Reported
05/15/2019 02:15 AM 47.66 43.70 39.56 59.54 47.30 73.0 Not Reported 0.00 SW 0.22 W 1.12 W No 0.000 No Precipitation     0.000 0.000 0.000 0.000 0.000 Not Reported Not Reported
05/15/2019 02:20 AM 47.66 44.06 40.28 59.54 47.30 75.0 Not Reported 0.00 N 0.00 NW 0.45 SW No 0.000 No Precipitation     0.000 0.000 0.000 0.000 0.000 Not Reported Not Reported
05/15/2019 02:25 AM 47.66 43.88 39.74 59.54 47.30 73.0 Not Reported 0.00 N 0.00 SW 0.45 SW No 0.000 No Precipitation     0.000 0.000 0.000 0.000 0.000 Not Reported Not Reported
05/15/2019 02:30 AM 47.48 43.70 39.74 59.54 47.30 73.0 Not Reported 0.00 N 0.00 NW 0.00 W No 0.000 No Precipitation     0.000 0.000 0.000 0.000 0.000 Not Reported Not Reported
05/15/2019 02:35 AM 47.48 43.52 39.38 59.54 47.30 73.0 Not Reported 0.00 N 0.00 SE 0.00 W No 0.000 No Precipitation     0.000 0.000 0.000 0.000 0.000 Not Reported Not Reported
05/15/2019 02:40 AM 47.48 43.88 39.74 59.54 47.30 74.0 Not Reported 0.00 SE 0.22 SE 0.22 W No 0.000 No Precipitation     0.000 0.000 0.000 0.000 0.000 Not Reported Not Reported
05/15/2019 02:45 AM 47.48 43.88 40.10 59.54 47.30 75.0 Not Reported 0.00 N 0.00 E 0.22 W No 0.000 No Precipitation     0.000 0.000 0.000 0.000 0.000 Not Reported Not Reported
05/15/2019 02:50 AM 47.30 43.52 39.56 59.54 47.30 74.0 Not Reported 0.00 SW 0.00 W 0.00 SW No 0.000 No Precipitation     0.000 0.000 0.000 0.000 0.000 Not Reported Not Reported
05/15/2019 02:55 AM 47.12 43.52 39.74 59.54 47.12 75.0 Not Reported 2.24 W 1.34 NW 0.00 SW No 0.000 No Precipitation     0.000 0.000 0.000 0.000 0.000 Not Reported Not Reported
05/15/2019 03:00 AM 46.76 43.70 40.46 59.54 46.76 78.0 Not Reported 2.68 W 2.68 NW 2.91 W No 0.000 No Precipitation     0.000 0.000 0.000 0.000 0.000 Not Reported Not Reported
05/15/2019 03:05 AM 46.58 43.52 40.46 59.54 46.40 79.0 Not Reported 2.68 W 2.91 W 2.91 W No 0.000 No Precipitation     0.000 0.000 0.000 0.000 0.000 Not Reported Not Reported
05/15/2019 03:10 AM 46.76 43.52 39.92 59.54 46.40 77.0 Not Reported 2.46 W 2.91 W 3.36 W No 0.000 No Precipitation     0.000 0.000 0.000 0.000 0.000 Not Reported Not Reported
05/15/2019 03:15 AM 46.58 43.52 40.28 59.54 46.40 78.0 Not Reported 3.13 W 3.36 W 3.36 W No 0.000 No Precipitation     0.000 0.000 0.000 0.000 0.000 Not Reported Not Reported
05/15/2019 03:20 AM 46.76 43.70 40.28 59.54 46.40 78.0 Not Reported 1.79 NW 2.68 NW 3.36 W No 0.000 No Precipitation     0.000 0.000 0.000 0.000 0.000 Not Reported Not Reported
05/15/2019 03:25 AM 46.58 43.52 40.10 59.54 46.40 77.0 Not Reported 3.13 W 2.68 NW 3.36 W No 0.000 No Precipitation     0.000 0.000 0.000 0.000 0.000 Not Reported Not Reported
05/15/2019 03:30 AM 46.58 43.52 40.28 59.54 46.40 78.0 Not Reported 2.91 W 3.13 W 3.36 W No 0.000 No Precipitation     0.000 0.000 0.000 0.000 0.000 Not Reported Not Reported
05/15/2019 03:35 AM 46.76 43.70 40.46 59.54 46.40 78.0 Not Reported 2.91 W 3.80 W 3.36 W No 0.000 No Precipitation     0.000 0.000 0.000 0.000 0.000 Not Reported Not Reported
05/15/2019 03:40 AM 46.58 43.52 40.28 59.54 46.40 78.0 Not Reported 2.91 W 3.80 W 4.47 W No 0.000 No Precipitation     0.000 0.000 0.000 0.000 0.000 Not Reported Not Reported
05/15/2019 03:45 AM 46.94 43.88 40.82 59.54 46.40 79.0 Not Reported 3.80 W 2.68 W 4.47 W No 0.000 No Precipitation     0.000 0.000 0.000 0.000 0.000 Not Reported Not Reported
05/15/2019 03:50 AM 46.94 43.88 41.00 59.54 46.40 79.0 Not Reported 2.01 W 2.24 NW 4.25 W No 0.000 No Precipitation     0.000 0.000 0.000 0.000 0.000 Not Reported Not Reported
05/15/2019 03:55 AM 46.94 44.24 41.36 59.54 46.40 80.0 Not Reported 1.57 NW 2.68 W 4.25 W No 0.000 No Precipitation     0.000 0.000 0.000 0.000 0.000 Not Reported Not Reported
05/15/2019 04:00 AM 46.94 44.24 41.54 59.54 46.40 81.0 Not Reported 2.24 NW 2.01 W 4.25 NW No 0.000 No Precipitation     0.000 0.000 0.000 0.000 0.000 Not Reported Not Reported
05/15/2019 04:05 AM 46.76 44.06 41.36 59.54 46.40 81.0 Not Reported 2.68 W 2.91 W 4.25 NW No 0.000 No Precipitation     0.000 0.000 0.000 0.000 0.000 Not Reported Not Reported
05/15/2019 04:10 AM 46.76 44.24 41.54 59.54 46.40 82.0 Not Reported 2.24 W 2.68 W 3.13 W No 0.000 No Precipitation     0.000 0.000 0.000 0.000 0.000 Not Reported Not Reported
05/15/2019 04:15 AM 46.76 44.24 41.54 59.54 46.40 82.0 Not Reported 1.57 NW 2.24 W 3.13 W No 0.000 No Precipitation     0.000 0.000 0.000 0.000 0.000 Not Reported Not Reported
05/15/2019 04:20 AM 46.94 44.42 41.72 59.54 46.40 82.0 Not Reported 1.57 W 1.79 W 3.13 W No 0.000 No Precipitation     0.000 0.000 0.000 0.000 0.000 Not Reported Not Reported
05/15/2019 04:25 AM 46.58 44.24 41.72 59.54 46.40 83.0 Not Reported 2.91 W 3.13 W 3.13 W No 0.000 No Precipitation     0.000 0.000 0.000 0.000 0.000 Not Reported Not Reported
05/15/2019 04:30 AM 46.58 44.24 42.08 59.54 46.40 83.0 Not Reported 1.34 NW 0.67 NW 3.80 W No 0.000 No Precipitation     0.000 0.000 0.000 0.000 0.000 Not Reported Not Reported
05/15/2019 04:35 AM 46.76 44.60 42.08 59.54 46.40 83.0 Not Reported 5.14 W 2.91 NW 3.80 W No 0.000 No Precipitation     0.000 0.000 0.000 0.000 0.000 Not Reported Not Reported
05/15/2019 04:40 AM 46.76 44.60 42.26 59.54 46.40 84.0 Not Reported 2.91 NW 2.68 W 5.82 W No 0.000 No Precipitation     0.000 0.000 0.000 0.000 0.000 Not Reported Not Reported
05/15/2019 04:45 AM 46.76 44.60 42.44 59.54 46.40 84.0 Not Reported 3.36 SW 3.58 W 5.82 W No 0.000 No Precipitation     0.000 0.000 0.000 0.000 0.000 Not Reported Not Reported
05/15/2019 04:50 AM 46.76 44.78 42.80 59.54 46.40 85.0 Not Reported 2.01 W 1.79 SW 4.47 W No 0.000 No Precipitation     0.000 0.000 0.000 0.000 0.000 Not Reported Not Reported
05/15/2019 04:55 AM 46.94 45.14 43.16 59.54 46.40 86.0 Not Reported 1.34 SW 0.00 S 4.47 W No 0.000 No Precipitation     0.000 0.000 0.000 0.000 0.000 Not Reported Not Reported
05/15/2019 05:00 AM 47.12 45.32 43.34 59.54 46.40 86.0 Not Reported 0.89 W 0.67 W 2.01 SW No 0.000 No Precipitation     0.000 0.000 0.000 0.000 0.000 Not Reported Not Reported
05/15/2019 05:05 AM 46.76 44.78 42.80 59.54 46.40 86.0 Not Reported 2.68 NW 1.57 W 2.01 SW No 0.000 No Precipitation     0.000 0.000 0.000 0.000 0.000 Not Reported Not Reported
05/15/2019 05:10 AM 46.58 44.96 43.16 59.54 46.40 87.0 Not Reported 1.79 W 1.79 W 3.36 W No 0.000 No Precipitation     0.000 0.000 0.000 0.000 0.000 Not Reported Not Reported
05/15/2019 05:15 AM 46.58 44.96 43.16 59.54 46.40 87.0 Not Reported 1.34 W 1.12 NW 3.36 W No 0.000 No Precipitation     0.000 0.000 0.000 0.000 0.000 Not Reported Not Reported
05/15/2019 05:20 AM 46.04 44.42 42.80 59.54 46.04 88.0 Not Reported 2.91 NW 2.91 NW 3.13 NW No 0.000 No Precipitation     0.000 0.000 0.000 0.000 0.000 Not Reported Not Reported
05/15/2019 05:25 AM 46.22 44.78 43.34 59.54 46.04 89.0 Not Reported 2.01 W 2.01 NW 3.13 NW No 0.000 No Precipitation     0.000 0.000 0.000 0.000 0.000 Not Reported Not Reported
05/15/2019 05:30 AM 46.40 44.96 43.34 59.54 46.04 89.0 Not Reported 1.79 W 1.79 W 2.68 NW No 0.000 No Precipitation     0.000 0.000 0.000 0.000 0.000 Not Reported Not Reported
05/15/2019 05:35 AM 46.40 44.96 43.52 59.54 46.04 89.0 Not Reported 1.34 N 0.22 NW 2.68 NW No 0.000 No Precipitation     0.000 0.000 0.000 0.000 0.000 Not Reported Not Reported
05/15/2019 05:40 AM 46.40 44.96 43.52 59.54 46.04 89.0 Not Reported 0.00 N 0.00 NW 2.01 W No 0.000 No Precipitation     0.000 0.000 0.000 0.000 0.000 Not Reported Not Reported
05/15/2019 05:45 AM 46.22 44.78 43.16 59.54 46.04 89.0 Not Reported 3.13 NW 1.34 W 2.01 W No 0.000 No Precipitation     0.000 0.000 0.000 0.000 0.000 Not Reported Not Reported
05/15/2019 05:50 AM 46.22 44.78 43.34 59.54 46.04 89.0 Not Reported 0.22 S 0.67 S 3.58 NW No 0.000 No Precipitation     0.000 0.000 0.000 0.000 0.000 Not Reported Not Reported
05/15/2019 05:55 AM 46.22 44.78 43.34 59.54 46.04 89.0 Not Reported 0.00 W 0.00 W 3.58 NW No 0.000 No Precipitation     0.000 0.000 0.000 0.000 0.000 Not Reported Not Reported
05/15/2019 06:00 AM 45.68 44.06 42.44 59.54 45.68 88.0 Not Reported 2.24 W 1.12 SW 3.13 NW No 0.000 No Precipitation     0.000 0.000 0.000 0.000 0.000 Not Reported Not Reported
05/15/2019 06:05 AM 46.58 44.42 42.44 59.54 45.68 85.0 Not Reported 1.12 SE 1.57 SW 3.13 NW No 0.000 No Precipitation     0.000 0.000 0.000 0.000 0.000 Not Reported Not Reported
05/15/2019 06:10 AM 46.04 44.06 42.08 59.54 45.68 85.0 Not Reported 0.89 W 0.89 NW 2.01 SE No 0.000 No Precipitation     0.000 0.000 0.000 0.000 0.000 Not Reported Not Reported
05/15/2019 06:15 AM 45.86 43.52 41.00 59.54 45.68 83.0 Not Reported 0.89 NW 0.22 S 2.01 SE No 0.000 No Precipitation     0.000 0.000 0.000 0.000 0.000 Not Reported Not Reported
05/15/2019 06:20 AM 46.40 44.06 41.54 59.54 45.68 83.0 Not Reported 0.22 NW 0.67 NW 1.57 NW No 0.000 No Precipitation     0.000 0.000 0.000 0.000 0.000 Not Reported Not Reported
05/15/2019 06:25 AM 46.22 44.06 41.54 59.54 45.68 83.0 Not Reported 0.89 SE 0.00 SW 1.57 NW No 0.000 No Precipitation     0.000 0.000 0.000 0.000 0.000 Not Reported Not Reported
05/15/2019 06:30 AM 46.04 43.70 41.18 59.54 45.68 83.0 Not Reported 0.00 N 0.00 E 1.34 SE No 0.000 No Precipitation     0.000 0.000 0.000 0.000 0.000 Not Reported Not Reported
05/15/2019 06:35 AM 46.04 43.70 41.18 59.54 45.68 83.0 Not Reported 0.00 N 0.00 SE 1.34 SE No 0.000 No Precipitation     0.000 0.000 0.000 0.000 0.000 Not Reported Not Reported
05/15/2019 06:40 AM 46.04 43.70 41.18 59.54 45.68 82.0 Not Reported 1.79 E 3.80 E 3.80 E No 0.000 No Precipitation     0.000 0.000 0.000 0.000 0.000 Not Reported Not Reported
05/15/2019 06:45 AM 48.74 43.88 38.48 59.54 45.68 67.0 Not Reported 3.13 E 1.12 SW 3.80 E No 0.000 No Precipitation     0.000 0.000 0.000 0.000 0.000 Not Reported Not Reported
05/15/2019 06:50 AM 47.30 43.88 40.28 59.54 45.68 76.0 Not Reported 1.34 SW 2.24 W 5.82 SW No 0.000 No Precipitation     0.000 0.000 0.000 0.000 0.000 Not Reported Not Reported
05/15/2019 06:55 AM 46.76 43.70 40.46 59.54 45.68 78.0 Not Reported 0.45 N 0.45 NE 5.82 SW No 0.000 No Precipitation     0.000 0.000 0.000 0.000 0.000 Not Reported Not Reported
05/15/2019 07:00 AM 46.58 43.88 40.82 59.54 45.68 80.0 Not Reported 1.12 E 1.57 E 2.91 E No 0.000 No Precipitation     0.000 0.000 0.000 0.000 0.000 Not Reported Not Reported
05/15/2019 07:05 AM 46.22 43.70 41.00 59.54 45.68 81.0 Not Reported 0.45 E 0.00 S 2.91 E No 0.000 No Precipitation     0.000 0.000 0.000 0.000 0.000 Not Reported Not Reported
05/15/2019 07:10 AM 46.22 43.88 41.54 59.54 45.68 83.0 Not Reported 0.22 S 0.22 S 2.01 NE No 0.000 No Precipitation     0.000 0.000 0.000 0.000 0.000 Not Reported Not Reported
05/15/2019 07:15 AM 46.04 43.70 41.36 59.54 45.68 83.0 Not Reported 0.45 SW 0.22 NW 2.01 NE No 0.000 No Precipitation     0.000 0.000 0.000 0.000 0.000 Not Reported Not Reported
05/15/2019 07:20 AM 46.04 43.88 41.72 59.54 45.68 84.0 Not Reported 0.00 N 0.00 NW 0.89 S No 0.000 No Precipitation     0.000 0.000 0.000 0.000 0.000 Not Reported Not Reported
05/15/2019 07:25 AM 46.04 44.06 41.90 59.54 45.68 85.0 Not Reported 0.67 W 0.00 NW 0.89 S No 0.000 No Precipitation     0.000 0.000 0.000 0.000 0.000 Not Reported Not Reported
05/15/2019 07:30 AM 46.22 44.24 42.08 59.54 45.68 85.0 Not Reported 0.00 N 0.00 NW 0.89 W No 0.000 No Precipitation     0.000 0.000 0.000 0.000 0.000 Not Reported Not Reported
05/15/2019 07:35 AM 46.22 43.88 41.54 59.54 45.68 83.0 Not Reported 1.12 E 0.67 SE 0.89 W No 0.000 No Precipitation     0.000 0.000 0.000 0.000 0.000 Not Reported Not Reported
05/15/2019 07:40 AM 46.40 44.06 41.72 59.54 45.68 83.0 Not Reported 0.00 NE 0.00 NE 1.34 SE No 0.000 No Precipitation     0.000 0.000 0.000 0.000 0.000 Not Reported Not Reported
05/15/2019 07:45 AM 46.58 44.06 41.36 59.54 45.68 81.0 Not Reported 0.00 E 0.00 E 1.34 SE No 0.000 No Precipitation     0.000 0.000 0.000 0.000 0.000 Not Reported Not Reported
05/15/2019 07:50 AM 46.76 44.24 41.36 59.54 45.68 81.0 Not Reported 0.00 N 0.00 NE 0.22 NE No 0.000 No Precipitation     0.000 0.000 0.000 0.000 0.000 Not Reported Not Reported
05/15/2019 07:55 AM 46.76 43.88 40.82 59.54 45.68 79.0 Not Reported 0.00 N 0.00 W 0.22 NE No 0.000 No Precipitation     0.000 0.000 0.000 0.000 0.000 Not Reported Not Reported
05/15/2019 08:00 AM 46.76 43.88 40.82 59.54 45.68 79.0 Not Reported 0.00 SE 0.00 E 0.22 SE No 0.000 No Precipitation     0.000 0.000 0.000 0.000 0.000 Not Reported Not Reported
05/15/2019 08:05 AM 47.12 44.24 41.18 59.54 45.68 80.0 Not Reported 0.00 E 1.57 E 0.22 SE No 0.000 No Precipitation     0.000 0.000 0.000 0.000 0.000 Not Reported Not Reported
05/15/2019 08:10 AM 46.76 43.88 41.00 59.54 45.68 80.0 Not Reported 1.34 SE 1.34 SE 1.79 E No 0.000 No Precipitation     0.000 0.000 0.000 0.000 0.000 Not Reported Not Reported
05/15/2019 08:15 AM 46.76 43.88 41.18 59.54 45.68 80.0 Not Reported 0.67 E 0.89 S 1.79 E No 0.000 No Precipitation     0.000 0.000 0.000 0.000 0.000 Not Reported Not Reported
05/15/2019 08:20 AM 46.76 43.88 40.82 59.54 45.68 79.0 Not Reported 0.00 N 0.00 NE 1.57 E No 0.000 No Precipitation     0.000 0.000 0.000 0.000 0.000 Not Reported Not Reported
05/15/2019 08:25 AM 46.94 43.88 40.64 59.54 45.68 78.0 Not Reported 0.00 S 0.67 SE 1.57 E No 0.000 No Precipitation     0.000 0.000 0.000 0.000 0.000 Not Reported Not Reported
05/15/2019 08:30 AM 47.12 44.24 41.18 59.54 45.68 79.0 Not Reported 0.00 N 0.00 E 0.67 SE No 0.000 No Precipitation     0.000 0.000 0.000 0.000 0.000 Not Reported Not Reported
05/15/2019 08:35 AM 47.30 44.42 41.72 59.54 45.68 80.0 Not Reported 0.89 W 2.01 SW 0.67 SE No 0.000 No Precipitation     0.000 0.000 0.000 0.000 0.000 Not Reported Not Reported
05/15/2019 08:40 AM 47.48 43.88 40.10 59.54 45.68 75.0 Not Reported 6.26 W 8.05 SW 8.05 SW No 0.000 No Precipitation     0.000 0.000 0.000 0.000 0.000 Not Reported Not Reported
05/15/2019 08:45 AM 47.12 44.24 41.18 59.54 45.68 79.0 Not Reported 5.37 W 5.37 SW 8.05 SW No 0.000 No Precipitation     0.000 0.000 0.000 0.000 0.000 Not Reported Not Reported
05/15/2019 08:50 AM 46.40 44.06 41.72 59.54 45.68 83.0 Not Reported 6.04 W 4.92 W 8.28 W No 0.000 No Precipitation     0.000 0.000 0.000 0.000 0.000 Not Reported Not Reported
05/15/2019 08:55 AM 46.04 44.42 42.62 59.54 45.68 87.0 Not Reported 2.68 W 4.25 NW 8.28 W Yes 0.043 Rain Slight 05/15/2019 12:52 AM   0.004 0.004 0.004 0.004 0.004 Not Reported Not Reported
05/15/2019 09:00 AM 45.50 44.24 42.80 59.54 45.50 89.0 Not Reported 5.37 NW 4.03 W 6.26 NW Yes 0.085 Rain Moderate 05/15/2019 12:52 AM   0.008 0.008 0.008 0.008 0.008 Not Reported Not Reported
05/15/2019 09:05 AM 45.32 44.06 42.98 59.54 45.32 91.0 Not Reported 4.25 W 3.13 SW 6.26 NW Yes 0.043 Rain Slight 05/15/2019 12:52 AM   0.016 0.016 0.016 0.016 0.016 Not Reported Not Reported
05/15/2019 09:10 AM 45.32 44.06 42.80 59.54 45.32 90.0 Not Reported 4.03 W 4.25 SW 4.92 W Yes 0.043 Rain Slight 05/15/2019 12:52 AM   0.020 0.020 0.020 0.020 0.020 Not Reported Not Reported
05/15/2019 09:15 AM 44.96 43.70 42.26 59.54 44.96 89.0 Not Reported 3.36 W 2.46 NW 4.92 W Yes 0.043 Rain Slight 05/15/2019 12:52 AM   0.020 0.020 0.020 0.020 0.020 Not Reported Not Reported
05/15/2019 09:20 AM 45.14 43.52 41.90 59.54 44.96 88.0 Not Reported 4.03 W 4.25 SW 5.37 W Yes 0.043 Rain Slight 05/15/2019 12:52 AM   0.028 0.028 0.028 0.028 0.028 Not Reported Not Reported
05/15/2019 09:25 AM 45.32 43.70 42.08 59.54 44.96 88.0 Not Reported 4.47 W 4.70 W 5.37 W Yes 0.043 Rain Slight 05/15/2019 01:24 AM   0.031 0.031 0.031 0.031 0.031 Not Reported Not Reported
05/15/2019 09:30 AM 45.32 43.34 41.54 59.54 44.96 86.0 Not Reported 1.34 W 0.67 NW 6.71 NW No 0.000 No Precipitation 05/15/2019 01:24 AM 05/15/2019 01:29 AM 0.031 0.031 0.031 0.031 0.031 Not Reported Not Reported
05/15/2019 09:35 AM 44.96 43.16 41.18 59.54 44.96 86.0 Not Reported 3.58 NW 5.82 W 6.71 NW Yes 0.043 Rain Slight 05/15/2019 01:31 AM   0.035 0.035 0.035 0.035 0.035 Not Reported Not Reported
05/15/2019 09:40 AM 44.96 42.98 41.00 59.54 44.96 85.0 Not Reported 4.47 NW 4.47 SW 5.82 W Yes 0.043 Rain Slight 05/15/2019 01:31 AM   0.039 0.039 0.039 0.039 0.039 Not Reported Not Reported
05/15/2019 09:45 AM 45.14 43.34 41.36 59.54 44.96 86.0 Not Reported 2.46 NW 4.47 NW 5.82 W No 0.000 No Precipitation 05/15/2019 01:31 AM 05/15/2019 01:40 AM 0.039 0.039 0.039 0.039 0.039 Not Reported Not Reported
05/15/2019 09:50 AM 45.14 43.16 41.00 59.54 44.96 85.0 Not Reported 2.01 W 2.24 NW 4.92 N Yes 0.043 Rain Slight 05/15/2019 01:48 AM   0.039 0.039 0.039 0.039 0.039 Not Reported Not Reported
05/15/2019 09:55 AM 45.50 43.70 41.72 59.54 44.96 86.0 Not Reported 2.68 SW 4.03 NW 4.92 N No 0.000 No Precipitation 05/15/2019 01:48 AM 05/15/2019 01:53 AM 0.039 0.039 0.039 0.039 0.039 Not Reported Not Reported
05/15/2019 10:00 AM 45.86 43.88 41.90 59.54 44.96 86.0 Not Reported 2.01 W 2.24 W 4.92 W No 0.000 No Precipitation 05/15/2019 01:48 AM 05/15/2019 01:53 AM 0.031 0.039 0.039 0.039 0.039 Not Reported Not Reported
05/15/2019 10:05 AM 46.22 44.24 42.26 59.54 44.96 85.0 Not Reported 2.24 SW 0.45 SW 4.92 W No 0.000 No Precipitation 05/15/2019 01:48 AM 05/15/2019 01:53 AM 0.028 0.039 0.039 0.039 0.039 Not Reported Not Reported
05/15/2019 10:10 AM 45.86 43.88 41.72 59.54 44.96 85.0 Not Reported 1.79 S 1.34 SW 4.47 SW No 0.000 No Precipitation 05/15/2019 01:48 AM 05/15/2019 01:53 AM 0.020 0.039 0.039 0.039 0.039 Not Reported Not Reported
05/15/2019 10:15 AM 46.22 44.42 42.44 59.54 44.96 86.0 Not Reported 2.68 W 4.03 NE 4.47 SW No 0.000 No Precipitation 05/15/2019 01:48 AM 05/15/2019 01:53 AM 0.020 0.039 0.039 0.039 0.039 Not Reported Not Reported
05/15/2019 10:20 AM 46.04 44.06 41.90 59.54 44.96 85.0 Not Reported 2.01 W 1.79 N 4.47 NW Yes 0.043 Rain Slight 05/15/2019 02:19 AM   0.020 0.043 0.043 0.043 0.043 Not Reported Not Reported
05/15/2019 10:25 AM 46.22 44.24 42.44 59.54 44.96 86.0 Not Reported 2.24 SW 0.89 NW 4.47 NW No 0.000 No Precipitation 05/15/2019 02:19 AM 05/15/2019 02:24 AM 0.016 0.043 0.043 0.043 0.043 Not Reported Not Reported
05/15/2019 10:30 AM 46.22 44.24 42.44 59.54 44.96 86.0 Not Reported 1.79 W 3.80 W 3.80 W Yes 0.043 Rain Slight 05/15/2019 02:27 AM   0.020 0.051 0.051 0.051 0.051 Not Reported Not Reported
05/15/2019 10:35 AM 45.68 43.70 41.54 59.54 44.96 85.0 Not Reported 2.24 SE 2.46 SE 3.80 W No 0.000 No Precipitation 05/15/2019 02:27 AM 05/15/2019 02:32 AM 0.016 0.051 0.051 0.051 0.051 Not Reported Not Reported
05/15/2019 10:40 AM 46.04 44.24 42.26 59.54 44.96 86.0 Not Reported 2.46 S 3.58 S 5.59 W No 0.000 No Precipitation 05/15/2019 02:27 AM 05/15/2019 02:32 AM 0.008 0.051 0.051 0.051 0.051 Not Reported Not Reported
05/15/2019 10:45 AM 46.04 44.06 41.90 59.54 44.96 85.0 Not Reported 3.13 W 0.89 W 5.59 W Yes 0.043 Rain Slight 05/15/2019 02:42 AM   0.016 0.055 0.055 0.055 0.055 Not Reported Not Reported
05/15/2019 10:50 AM 46.04 44.42 42.62 59.54 44.96 87.0 Not Reported 1.57 W 1.57 SW 4.70 W No 0.000 No Precipitation 05/15/2019 02:42 AM 05/15/2019 02:47 AM 0.008 0.055 0.055 0.055 0.055 Not Reported Not Reported
05/15/2019 10:55 AM 46.22 44.78 43.16 59.54 44.96 89.0 Not Reported 2.91 W 2.91 W 4.70 W Yes 0.043 Rain Slight 05/15/2019 02:53 AM   0.016 0.059 0.059 0.059 0.059 Not Reported Not Reported
05/15/2019 11:00 AM 45.86 44.60 43.16 59.54 44.96 90.0 Not Reported 2.24 W 1.79 W 3.58 W Yes 0.043 Rain Slight 05/15/2019 02:59 AM   0.020 0.063 0.063 0.063 0.063 Not Reported Not Reported
05/15/2019 11:05 AM 45.32 43.88 42.44 59.54 44.96 89.0 Not Reported 4.03 NW 5.14 N 3.58 W Yes 0.043 Rain Slight 05/15/2019 02:59 AM   0.020 0.067 0.067 0.067 0.067 Not Reported Not Reported
05/15/2019 11:10 AM 45.32 44.06 42.80 59.54 44.96 90.0 Not Reported 3.13 W 2.68 NW 6.04 W No 0.000 No Precipitation 05/15/2019 02:59 AM 05/15/2019 03:08 AM 0.020 0.067 0.067 0.067 0.067 Not Reported Not Reported
05/15/2019 11:15 AM 44.96 43.52 42.26 59.54 44.96 90.0 Not Reported 4.03 W 3.36 W 6.04 W Yes 0.043 Rain Slight 05/15/2019 03:13 AM   0.028 0.071 0.071 0.071 0.071 Not Reported Not Reported
05/15/2019 11:20 AM 44.78 43.52 42.26 59.54 44.78 90.0 Not Reported 5.14 W 4.47 W 6.04 W No 0.000 No Precipitation 05/15/2019 03:13 AM 05/15/2019 03:18 AM 0.020 0.071 0.071 0.071 0.071 Not Reported Not Reported
05/15/2019 11:25 AM 44.78 43.52 42.26 59.54 44.60 90.0 Not Reported 5.59 W 2.68 W 6.04 W Yes 0.085 Rain Moderate 05/15/2019 03:21 AM   0.031 0.079 0.079 0.079 0.079 Not Reported Not Reported
05/15/2019 11:30 AM 44.96 43.88 42.80 59.54 44.60 92.0 Not Reported 2.91 W 2.46 NW 7.38 W No 0.000 No Precipitation 05/15/2019 03:21 AM 05/15/2019 03:30 AM 0.028 0.079 0.079 0.079 0.079 Not Reported Not Reported
05/15/2019 11:35 AM 44.96 43.88 42.80 59.54 44.60 92.0 Not Reported 3.13 W 3.58 W 7.38 W Yes 0.043 Rain Slight 05/15/2019 03:32 AM   0.031 0.083 0.083 0.083 0.083 Not Reported Not Reported
05/15/2019 11:40 AM 44.78 43.70 42.80 59.54 44.60 92.0 Not Reported 3.36 W 4.03 NW 4.70 W Yes 0.043 Rain Slight 05/15/2019 03:40 AM   0.035 0.083 0.083 0.083 0.083 Not Reported Not Reported
05/15/2019 11:45 AM 44.78 43.52 42.44 59.54 44.60 91.0 Not Reported 6.26 W 4.25 NW 4.70 W Yes 0.043 Rain Slight 05/15/2019 03:40 AM   0.035 0.091 0.091 0.091 0.091 Not Reported Not Reported
05/15/2019 11:50 AM 45.14 43.88 42.44 59.54 44.60 90.0 Not Reported 3.80 NW 4.03 W 8.95 W Yes 0.043 Rain Slight 05/15/2019 03:40 AM   0.039 0.091 0.091 0.091 0.091 Not Reported Not Reported
05/15/2019 11:55 AM 44.78 42.98 41.18 59.54 44.60 87.0 Not Reported 4.03 W 4.03 W 8.95 W No 0.000 No Precipitation 05/15/2019 03:40 AM 05/15/2019 03:52 AM 0.035 0.091 0.091 0.091 0.091 Not Reported Not Reported
05/15/2019 12:00 PM 44.96 43.34 41.54 59.54 44.60 87.0 Not Reported 2.91 W 2.68 SW 7.61 SW Yes 0.043 Rain Slight 05/15/2019 03:57 AM   0.035 0.083 0.098 0.098 0.098 Not Reported Not Reported
05/15/2019 12:05 PM 45.14 43.34 41.54 59.54 44.60 87.0 Not Reported 2.24 W 4.03 S 7.61 SW Yes 0.043 Rain Slight 05/15/2019 04:02 AM   0.035 0.083 0.102 0.102 0.102 Not Reported Not Reported
05/15/2019 12:10 PM 45.14 43.16 41.18 59.54 44.60 85.0 Not Reported 6.04 W 5.37 SW 7.61 SW Yes 0.043 Rain Slight 05/15/2019 04:09 AM   0.039 0.083 0.102 0.102 0.102 Not Reported Not Reported
05/15/2019 12:15 PM 44.96 43.34 41.72 59.54 44.60 87.0 Not Reported 2.91 W 4.03 W 7.61 SW Yes 0.043 Rain Slight 05/15/2019 04:09 AM   0.039 0.083 0.110 0.110 0.110 Not Reported Not Reported
05/15/2019 12:20 PM 44.78 42.98 41.00 59.54 44.60 86.0 Not Reported 6.26 W 6.93 SW 7.61 SW Yes 0.043 Rain Slight 05/15/2019 04:09 AM   0.039 0.083 0.110 0.110 0.110 Not Reported Not Reported
05/15/2019 12:25 PM 44.96 43.34 41.90 59.54 44.60 89.0 Not Reported 3.58 E 4.25 W 7.61 SW Yes 0.085 Rain Moderate 05/15/2019 04:09 AM   0.039 0.091 0.122 0.122 0.122 Not Reported Not Reported
05/15/2019 12:30 PM 44.78 43.16 41.54 59.54 44.60 88.0 Not Reported 5.14 W 4.70 W 6.71 W Yes 0.085 Rain Moderate 05/15/2019 04:09 AM   0.051 0.098 0.130 0.130 0.130 Not Reported Not Reported
05/15/2019 12:35 PM 44.78 43.16 41.54 59.54 44.60 88.0 Not Reported 3.58 W 2.24 N 6.71 W Yes 0.043 Rain Slight 05/15/2019 04:09 AM   0.051 0.098 0.134 0.134 0.134 Not Reported Not Reported
05/15/2019 12:40 PM 44.96 43.52 42.08 59.54 44.60 89.0 Not Reported 3.80 NW 5.82 W 6.71 W Yes 0.043 Rain Slight 05/15/2019 04:38 AM   0.051 0.098 0.138 0.138 0.138 Not Reported Not Reported
05/15/2019 12:45 PM 44.42 42.98 41.54 59.54 44.42 89.0 Not Reported 4.47 NW 2.01 SW 6.71 W Yes 0.043 Rain Slight 05/15/2019 04:38 AM   0.051 0.102 0.142 0.142 0.142 Not Reported Not Reported
05/15/2019 12:50 PM 44.78 43.34 41.90 59.54 44.24 89.0 Not Reported 2.91 W 2.68 NW 6.49 NW Yes 0.043 Rain Slight 05/15/2019 04:38 AM   0.051 0.102 0.146 0.146 0.146 Not Reported Not Reported
05/15/2019 12:55 PM 44.60 43.16 41.72 59.54 44.24 89.0 Not Reported 2.91 W 2.68 W 6.49 NW Yes 0.043 Rain Slight 05/15/2019 04:38 AM   0.055 0.102 0.150 0.150 0.150 Not Reported Not Reported
05/15/2019 01:00 PM 44.96 43.70 42.44 59.54 44.24 91.0 Not Reported 2.24 S 3.13 S 4.92 W Yes 0.043 Rain Slight 05/15/2019 04:38 AM   0.055 0.110 0.154 0.154 0.154 Not Reported Not Reported
05/15/2019 01:05 PM 45.14 43.34 41.36 59.54 44.24 86.0 Not Reported 6.04 W 2.91 S 4.92 W Yes 0.043 Rain Slight 05/15/2019 05:02 AM   0.055 0.110 0.157 0.157 0.157 Not Reported Not Reported
05/15/2019 01:10 PM 45.32 43.16 40.82 59.54 44.24 84.0 Not Reported 4.03 SW 3.58 SW 10.29 S Yes 0.043 Rain Slight 05/15/2019 05:10 AM   0.055 0.118 0.161 0.161 0.161 Not Reported Not Reported
05/15/2019 01:15 PM 45.32 43.16 41.00 59.54 44.24 85.0 Not Reported 4.47 SW 8.05 W 10.29 S No 0.000 No Precipitation 05/15/2019 05:10 AM 05/15/2019 05:15 AM 0.051 0.118 0.161 0.161 0.161 Not Reported Not Reported
05/15/2019 01:20 PM 45.14 43.16 41.00 59.54 44.24 85.0 Not Reported 2.91 SW 4.47 SW 8.05 W Yes 0.085 Rain Moderate 05/15/2019 05:16 AM   0.055 0.122 0.165 0.165 0.165 Not Reported Not Reported
05/15/2019 01:25 PM 44.96 42.80 40.64 59.54 44.24 84.0 Not Reported 5.37 S 2.24 NW 8.05 W No 0.000 No Precipitation 05/15/2019 05:16 AM 05/15/2019 05:24 AM 0.043 0.122 0.165 0.165 0.165 Not Reported Not Reported
05/15/2019 01:30 PM 44.96 43.16 41.36 59.54 44.24 86.0 Not Reported 2.68 E 2.24 SE 6.93 SW Yes 0.043 Rain Slight 05/15/2019 05:26 AM   0.039 0.122 0.169 0.169 0.169 Not Reported Not Reported
05/15/2019 01:35 PM 45.32 43.52 41.72 59.54 44.24 87.0 Not Reported 1.57 N 1.12 NW 6.93 SW No 0.000 No Precipitation 05/15/2019 05:26 AM 05/15/2019 05:31 AM 0.039 0.122 0.169 0.169 0.169 Not Reported Not Reported
05/15/2019 01:40 PM 45.32 43.34 41.36 59.54 44.24 85.0 Not Reported 2.24 S 1.57 S 5.14 S Yes 0.043 Rain Slight 05/15/2019 05:36 AM   0.039 0.126 0.177 0.177 0.177 Not Reported Not Reported
05/15/2019 01:45 PM 45.14 43.52 41.72 59.54 44.24 87.0 Not Reported 2.01 N 4.70 W 5.14 S Yes 0.043 Rain Slight 05/15/2019 05:36 AM   0.039 0.126 0.181 0.181 0.181 Not Reported Not Reported
05/15/2019 01:50 PM 45.14 43.34 41.54 59.54 44.24 86.0 Not Reported 3.13 NW 6.04 W 6.04 S Yes 0.085 Rain Moderate 05/15/2019 05:36 AM   0.039 0.134 0.185 0.185 0.185 Not Reported Not Reported
05/15/2019 01:55 PM 45.32 43.34 41.00 59.54 44.24 84.0 Not Reported 4.92 W 5.14 SE 6.04 S Yes 0.085 Rain Moderate 05/15/2019 05:36 AM   0.043 0.138 0.197 0.197 0.197 Not Reported Not Reported
05/15/2019 02:00 PM 45.14 43.34 41.36 59.54 44.24 86.0 Not Reported 3.80 W 4.25 W 8.28 S Yes 0.128 Rain Moderate 05/15/2019 05:36 AM   0.055 0.146 0.205 0.205 0.205 Not Reported Not Reported
05/15/2019 02:05 PM 45.14 43.52 41.72 59.54 44.24 87.0 Not Reported 2.91 SE 1.34 SE 8.28 S Yes 0.085 Rain Moderate 05/15/2019 05:36 AM   0.059 0.150 0.217 0.217 0.217 Not Reported Not Reported
05/15/2019 02:10 PM 45.50 43.52 41.36 59.54 44.24 85.0 Not Reported 2.91 S 0.67 W 11.63 SW Yes 0.043 Rain Slight 05/15/2019 05:36 AM   0.059 0.154 0.220 0.220 0.220 Not Reported Not Reported
05/15/2019 02:15 PM 45.50 43.70 41.72 59.54 44.24 86.0 Not Reported 2.91 E 3.58 SW 11.63 SW Yes 0.043 Rain Slight 05/15/2019 06:13 AM   0.063 0.154 0.224 0.224 0.224 Not Reported Not Reported
05/15/2019 02:20 PM 45.32 43.70 41.90 59.54 44.24 87.0 Not Reported 7.83 NW 7.16 NE 10.74 W Yes 0.043 Rain Slight 05/15/2019 06:13 AM   0.059 0.157 0.224 0.224 0.224 Not Reported Not Reported
05/15/2019 02:25 PM 45.14 43.16 41.18 59.54 44.24 85.0 Not Reported 3.13 NW 2.24 S 10.74 W Yes 0.043 Rain Slight 05/15/2019 06:23 AM   0.063 0.154 0.228 0.228 0.228 Not Reported Not Reported
05/15/2019 02:30 PM 45.50 43.70 41.72 59.54 44.24 86.0 Not Reported 2.24 W 2.91 N 8.05 NW No 0.000 No Precipitation 05/15/2019 06:23 AM 05/15/2019 06:28 AM 0.059 0.154 0.228 0.228 0.228 Not Reported Not Reported
05/15/2019 02:35 PM 45.68 44.06 42.26 59.54 44.24 87.0 Not Reported 1.57 SW 4.03 NW 8.05 NW Yes 0.043 Rain Slight 05/15/2019 06:33 AM   0.063 0.154 0.236 0.236 0.236 Not Reported Not Reported
05/15/2019 02:40 PM 45.50 43.70 41.72 59.54 44.24 86.0 Not Reported 4.47 W 3.58 W 6.93 SW Yes 0.043 Rain Slight 05/15/2019 06:39 AM   0.063 0.154 0.240 0.240 0.240 Not Reported Not Reported
05/15/2019 02:45 PM 45.50 43.70 41.90 59.54 44.24 87.0 Not Reported 1.12 W 1.12 SW 6.93 SW Yes 0.043 Rain Slight 05/15/2019 06:45 AM   0.063 0.154 0.244 0.244 0.244 Not Reported Not Reported
05/15/2019 02:50 PM 45.68 43.88 42.26 59.36 44.24 87.0 Not Reported 2.68 SE 5.14 SE 6.49 W No 0.000 No Precipitation 05/15/2019 06:45 AM 05/15/2019 06:50 AM 0.055 0.150 0.244 0.244 0.244 Not Reported Not Reported
05/15/2019 02:55 PM 45.86 44.06 42.44 59.36 44.24 87.0 Not Reported 3.58 SW 3.80 W 6.49 W Yes 0.043 Rain Slight 05/15/2019 06:51 AM   0.051 0.154 0.244 0.244 0.244 Not Reported Not Reported
05/15/2019 03:00 PM 46.22 44.60 42.80 59.00 44.24 87.0 Not Reported 4.47 W 2.01 SW 6.93 W Yes 0.043 Rain Slight 05/15/2019 06:51 AM   0.039 0.154 0.240 0.252 0.252 Not Reported Not Reported
05/15/2019 03:05 PM 46.04 44.24 42.26 59.00 44.24 86.0 Not Reported 0.89 NW 0.67 SE 6.93 W Yes 0.043 Rain Slight 05/15/2019 06:51 AM   0.039 0.154 0.240 0.256 0.256 Not Reported Not Reported
05/15/2019 03:10 PM 46.22 44.42 42.80 58.28 44.24 87.0 Not Reported 0.89 SW 0.00 SE 4.47 SW Yes 0.043 Rain Slight 05/15/2019 07:08 AM   0.039 0.154 0.240 0.260 0.260 Not Reported Not Reported
05/15/2019 03:15 PM 46.22 44.42 42.44 57.92 44.24 86.0 Not Reported 1.34 SW 1.79 W 4.47 SW Yes 0.043 Rain Slight 05/15/2019 07:13 AM   0.039 0.154 0.240 0.264 0.264 Not Reported Not Reported
05/15/2019 03:20 PM 46.22 44.60 42.80 57.92 44.24 88.0 Not Reported 2.91 S 3.36 S 7.38 SW Yes 0.043 Rain Slight 05/15/2019 07:13 AM   0.039 0.154 0.240 0.268 0.268 Not Reported Not Reported
05/15/2019 03:25 PM 46.22 44.06 42.08 57.92 44.24 85.0 Not Reported 2.91 W 2.91 W 7.38 SW Yes 0.043 Rain Slight 05/15/2019 07:25 AM   0.039 0.150 0.240 0.272 0.272 Not Reported Not Reported
05/15/2019 03:30 PM 46.04 44.06 41.90 57.92 44.24 85.0 Not Reported 3.80 W 9.62 W 9.62 W No 0.000 No Precipitation 05/15/2019 07:25 AM 05/15/2019 07:30 AM 0.039 0.142 0.240 0.272 0.272 Not Reported Not Reported
05/15/2019 03:35 PM 45.86 43.88 41.90 57.92 44.24 85.0 Not Reported 4.03 W 1.79 W 9.62 W No 0.000 No Precipitation 05/15/2019 07:25 AM 05/15/2019 07:30 AM 0.035 0.138 0.236 0.272 0.272 Not Reported Not Reported
05/15/2019 03:40 PM 46.40 44.60 42.80 57.92 44.24 87.0 Not Reported 0.67 SW 0.22 W 7.16 W Yes 0.043 Rain Slight 05/15/2019 07:36 AM   0.035 0.138 0.236 0.276 0.276 Not Reported Not Reported
05/15/2019 03:45 PM 46.22 44.42 42.62 57.92 44.24 87.0 Not Reported 1.79 SW 1.34 SW 7.16 W Yes 0.085 Rain Moderate 05/15/2019 07:36 AM   0.039 0.142 0.244 0.283 0.283 Not Reported Not Reported
05/15/2019 03:50 PM 46.22 44.06 42.08 57.92 44.24 85.0 Not Reported 3.58 NW 2.46 NE 6.04 W Yes 0.043 Rain Slight 05/15/2019 07:36 AM   0.039 0.142 0.244 0.287 0.287 Not Reported Not Reported
05/15/2019 03:55 PM 45.86 43.88 41.90 57.92 44.24 85.0 Not Reported 3.36 NW 1.79 SW 6.04 W Yes 0.043 Rain Slight 05/15/2019 07:36 AM   0.039 0.142 0.244 0.291 0.291 Not Reported Not Reported
05/15/2019 04:00 PM 46.04 44.06 42.26 57.92 44.24 86.0 Not Reported 1.57 NE 2.01 NE 5.37 W No 0.000 No Precipitation 05/15/2019 07:36 AM 05/15/2019 07:58 AM 0.039 0.138 0.244 0.291 0.291 Not Reported Not Reported
05/15/2019 04:05 PM 46.04 44.06 42.08 57.92 44.24 85.0 Not Reported 4.92 W 2.91 NE 5.37 W Yes 0.043 Rain Slight 05/15/2019 08:03 AM   0.039 0.138 0.252 0.295 0.295 Not Reported Not Reported
05/15/2019 04:10 PM 46.58 44.06 41.54 57.92 44.24 82.0 Not Reported 3.58 W 1.12 N 6.71 NW No 0.000 No Precipitation 05/15/2019 08:03 AM 05/15/2019 08:08 AM 0.035 0.134 0.252 0.295 0.295 Not Reported Not Reported
05/15/2019 04:15 PM 46.58 44.06 41.36 57.92 44.24 81.0 Not Reported 2.01 S 2.24 SW 6.71 NW No 0.000 No Precipitation 05/15/2019 08:03 AM 05/15/2019 08:08 AM 0.031 0.134 0.252 0.295 0.295 Not Reported Not Reported
05/15/2019 04:20 PM 46.76 44.78 42.80 57.92 44.24 86.0 Not Reported 0.67 S 0.22 E 8.05 NW No 0.000 No Precipitation 05/15/2019 08:03 AM 05/15/2019 08:08 AM 0.028 0.126 0.244 0.295 0.295 Not Reported Not Reported
05/15/2019 04:25 PM 47.48 45.86 44.24 57.92 44.24 88.0 Not Reported 3.13 NW 2.68 N 8.05 NW No 0.000 No Precipitation 05/15/2019 08:03 AM 05/15/2019 08:08 AM 0.020 0.126 0.244 0.295 0.295 Not Reported Not Reported
05/15/2019 04:30 PM 46.76 44.24 41.72 57.92 44.24 82.0 Not Reported 4.92 SE 4.47 SE 7.16 NW No 0.000 No Precipitation 05/15/2019 08:03 AM 05/15/2019 08:08 AM 0.020 0.122 0.244 0.295 0.295 Not Reported Not Reported
05/15/2019 04:35 PM 46.58 44.24 41.72 57.92 44.24 83.0 Not Reported 4.25 W 1.79 NW 7.16 NW No 0.000 No Precipitation 05/15/2019 08:03 AM 05/15/2019 08:08 AM 0.020 0.122 0.244 0.295 0.295 Not Reported Not Reported
05/15/2019 04:40 PM 46.76 44.42 42.08 57.92 44.24 83.0 Not Reported 2.24 NW 2.91 W 5.82 NW No 0.000 No Precipitation 05/15/2019 08:03 AM 05/15/2019 08:08 AM 0.020 0.118 0.244 0.295 0.295 Not Reported Not Reported
05/15/2019 04:45 PM 46.94 44.06 41.00 57.92 44.24 79.0 Not Reported 6.26 SE 2.46 SE 5.82 NW No 0.000 No Precipitation 05/15/2019 08:03 AM 05/15/2019 08:08 AM 0.008 0.110 0.240 0.295 0.295 Not Reported Not Reported
05/15/2019 04:50 PM 47.12 44.78 42.44 57.92 44.24 83.0 Not Reported 1.34 SW 1.57 W 7.16 SW No 0.000 No Precipitation 05/15/2019 08:03 AM 05/15/2019 08:08 AM 0.008 0.102 0.240 0.295 0.295 Not Reported Not Reported
05/15/2019 04:55 PM 46.94 44.24 41.54 57.92 44.24 81.0 Not Reported 3.36 W 7.61 SW 7.16 SW No 0.000 No Precipitation 05/15/2019 08:03 AM 05/15/2019 08:08 AM 0.004 0.098 0.236 0.295 0.295 Not Reported Not Reported
05/15/2019 05:00 PM 46.76 44.06 41.36 57.92 44.24 81.0 Not Reported 4.70 SW 6.04 NW 7.61 SW No 0.000 No Precipitation 05/15/2019 08:03 AM 05/15/2019 08:08 AM 0.004 0.083 0.228 0.295 0.295 Not Reported Not Reported
05/15/2019 05:05 PM 46.94 44.78 42.62 57.92 44.24 84.0 Not Reported 1.34 E 0.89 S 7.61 SW No 0.000 No Precipitation 05/15/2019 08:03 AM 05/15/2019 08:08 AM 0.000 0.079 0.224 0.295 0.295 Not Reported Not Reported
05/15/2019 05:10 PM 46.76 44.24 41.72 57.92 44.24 82.0 Not Reported 2.24 SW 2.01 W 5.82 E No 0.000 No Precipitation 05/15/2019 08:03 AM 05/15/2019 08:08 AM 0.000 0.075 0.224 0.295 0.295 Not Reported Not Reported
05/15/2019 05:15 PM 46.76 44.06 41.54 57.92 44.24 81.0 Not Reported 1.79 S 4.03 NW 5.82 E No 0.000 No Precipitation 05/15/2019 08:03 AM 05/15/2019 08:08 AM 0.000 0.071 0.224 0.295 0.295 Not Reported Not Reported
05/15/2019 05:20 PM 46.94 44.42 42.08 57.20 44.24 83.0 Not Reported 3.36 W 4.25 SW 5.59 W No 0.000 No Precipitation 05/15/2019 08:03 AM 05/15/2019 08:08 AM 0.000 0.067 0.224 0.295 0.295 Not Reported Not Reported
05/15/2019 05:25 PM 46.94 44.60 42.26 57.20 44.24 83.0 Not Reported 3.58 W 2.68 SW 5.59 W No 0.000 No Precipitation 05/15/2019 08:03 AM 05/15/2019 08:08 AM 0.000 0.063 0.217 0.295 0.295 Not Reported Not Reported
05/15/2019 05:30 PM 47.12 44.42 41.54 57.20 44.24 80.0 Not Reported 3.13 SW 2.91 W 6.71 NW No 0.000 No Precipitation 05/15/2019 08:03 AM 05/15/2019 08:08 AM 0.000 0.063 0.217 0.295 0.295 Not Reported Not Reported
05/15/2019 05:35 PM 47.12 44.24 41.54 57.20 44.24 81.0 Not Reported 4.25 W 2.01 NW 6.71 NW No 0.000 No Precipitation 05/15/2019 08:03 AM 05/15/2019 08:08 AM 0.000 0.059 0.209 0.295 0.295 Not Reported Not Reported
05/15/2019 05:40 PM 47.30 44.78 42.08 57.20 44.24 81.0 Not Reported 6.71 S 8.05 S 8.05 S No 0.000 No Precipitation 05/15/2019 08:03 AM 05/15/2019 08:08 AM 0.000 0.055 0.205 0.295 0.295 Not Reported Not Reported
05/15/2019 05:45 PM 47.66 44.78 42.08 56.48 44.24 80.0 Not Reported 4.70 W 4.92 SW 8.05 S No 0.000 No Precipitation 05/15/2019 08:03 AM 05/15/2019 08:08 AM 0.000 0.051 0.205 0.295 0.295 Not Reported Not Reported
05/15/2019 05:50 PM 47.66 44.60 41.54 56.48 44.24 79.0 Not Reported 4.25 E 5.59 E 5.59 E No 0.000 No Precipitation 05/15/2019 08:03 AM 05/15/2019 08:08 AM 0.000 0.051 0.201 0.295 0.295 Not Reported Not Reported
05/15/2019 05:55 PM 47.66 44.96 42.26 56.48 44.24 81.0 Not Reported 3.13 W 2.24 NW 5.59 E No 0.000 No Precipitation 05/15/2019 08:03 AM 05/15/2019 08:08 AM 0.000 0.043 0.201 0.295 0.295 Not Reported Not Reported
05/15/2019 06:00 PM 47.48 44.78 41.90 56.30 44.24 80.0 Not Reported 2.46 SE 1.57 NE 6.26 W No 0.000 No Precipitation 05/15/2019 08:03 AM 05/15/2019 08:08 AM 0.000 0.039 0.197 0.295 0.295 Not Reported Not Reported
05/15/2019 06:05 PM 47.48 45.14 42.62 56.30 44.24 83.0 Not Reported 1.12 NW 1.34 W 6.26 W No 0.000 No Precipitation 05/15/2019 08:03 AM 05/15/2019 08:08 AM 0.000 0.039 0.189 0.295 0.295 Not Reported Not Reported
05/15/2019 06:10 PM 47.66 44.78 42.08 56.12 44.24 80.0 Not Reported 4.03 NW 6.93 NW 6.93 NW No 0.000 No Precipitation 05/15/2019 08:03 AM 05/15/2019 08:08 AM 0.000 0.035 0.185 0.295 0.295 Not Reported Not Reported
05/15/2019 06:15 PM 47.84 44.78 41.72 56.12 44.24 79.0 Not Reported 2.46 W 2.68 W 6.93 NW No 0.000 No Precipitation 05/15/2019 08:03 AM 05/15/2019 08:08 AM 0.000 0.031 0.185 0.295 0.295 Not Reported Not Reported
05/15/2019 06:20 PM 47.84 44.96 41.90 55.76 44.24 79.0 Not Reported 2.46 SW 4.47 SW 4.47 SW No 0.000 No Precipitation 05/15/2019 08:03 AM 05/15/2019 08:08 AM 0.000 0.028 0.181 0.295 0.295 Not Reported Not Reported
05/15/2019 06:25 PM 47.84 44.60 41.18 55.58 44.24 77.0 Not Reported 2.46 NW 5.82 W 4.47 SW No 0.000 No Precipitation 05/15/2019 08:03 AM 05/15/2019 08:08 AM 0.000 0.020 0.169 0.295 0.295 Not Reported Not Reported
05/15/2019 06:30 PM 47.84 45.14 42.44 55.22 44.24 81.0 Not Reported 1.79 W 1.12 NW 8.72 NW No 0.000 No Precipitation 05/15/2019 08:03 AM 05/15/2019 08:08 AM 0.000 0.020 0.165 0.295 0.295 Not Reported Not Reported
05/15/2019 06:35 PM 48.02 45.50 42.98 55.22 44.24 82.0 Not Reported 1.12 W 0.89 W 8.72 NW No 0.000 No Precipitation 05/15/2019 08:03 AM 05/15/2019 08:08 AM 0.000 0.020 0.161 0.295 0.295 Not Reported Not Reported
05/15/2019 06:40 PM 48.02 45.14 42.26 55.22 44.24 80.0 Not Reported 1.34 W 1.34 W 3.58 SW No 0.000 No Precipitation 05/15/2019 08:03 AM 05/15/2019 08:08 AM 0.000 0.020 0.157 0.295 0.295 Not Reported Not Reported
05/15/2019 06:45 PM 48.02 45.32 42.62 55.22 44.24 81.0 Not Reported 2.24 W 1.34 NW 3.58 SW No 0.000 No Precipitation 05/15/2019 08:03 AM 05/15/2019 08:08 AM 0.000 0.008 0.154 0.295 0.295 Not Reported Not Reported
05/15/2019 06:50 PM 48.38 45.50 42.80 54.86 44.24 80.0 Not Reported 2.46 W 2.01 W 6.04 W No 0.000 No Precipitation 05/15/2019 08:03 AM 05/15/2019 08:08 AM 0.000 0.008 0.150 0.295 0.295 Not Reported Not Reported
05/15/2019 06:55 PM 48.02 44.42 40.64 54.86 44.24 75.0 Not Reported 5.37 W 7.83 W 6.04 W No 0.000 No Precipitation 05/15/2019 08:03 AM 05/15/2019 08:08 AM 0.000 0.004 0.146 0.295 0.295 Not Reported Not Reported
05/15/2019 07:00 PM 47.84 44.96 41.90 54.86 44.24 79.0 Not Reported 2.91 NW 3.13 NW 10.29 SW No 0.000 No Precipitation 05/15/2019 08:03 AM 05/15/2019 08:08 AM 0.000 0.004 0.142 0.295 0.295 Not Reported Not Reported
05/15/2019 07:05 PM 47.30 44.24 41.18 54.32 44.24 78.0 Not Reported 6.93 W 3.58 W 10.29 SW No 0.000 No Precipitation 05/15/2019 08:03 AM 05/15/2019 08:08 AM 0.000 0.000 0.138 0.295 0.295 Not Reported Not Reported
05/15/2019 07:10 PM 47.12 44.42 41.36 54.14 44.24 80.0 Not Reported 4.47 W 5.37 W 10.51 W No 0.000 No Precipitation 05/15/2019 08:03 AM 05/15/2019 08:08 AM 0.000 0.000 0.134 0.295 0.295 Not Reported Not Reported
05/15/2019 07:15 PM 46.94 44.42 41.90 53.96 44.24 82.0 Not Reported 2.01 NW 2.24 NW 10.51 W Yes 0.043 Rain Slight 05/15/2019 11:10 AM   0.004 0.004 0.138 0.299 0.299 Not Reported Not Reported
05/15/2019 07:20 PM 46.58 44.06 41.54 53.78 44.24 82.0 Not Reported 4.47 W 3.36 NW 11.41 W No 0.000 No Precipitation 05/15/2019 11:10 AM 05/15/2019 11:15 AM 0.004 0.004 0.130 0.299 0.299 Not Reported Not Reported
05/15/2019 07:25 PM 46.40 44.06 41.54 53.60 44.24 82.0 Not Reported 3.58 W 5.37 W 11.41 W No 0.000 No Precipitation 05/15/2019 11:10 AM 05/15/2019 11:15 AM 0.004 0.004 0.130 0.299 0.299 Not Reported Not Reported
05/15/2019 07:30 PM 46.22 44.24 42.26 53.60 44.24 85.0 Not Reported 3.36 SE 2.24 N 5.59 SE Yes 0.043 Rain Slight 05/15/2019 11:28 AM   0.008 0.008 0.130 0.303 0.303 Not Reported Not Reported
05/15/2019 07:35 PM 46.22 44.24 42.08 53.60 44.24 85.0 Not Reported 2.01 W 2.46 W 5.59 SE Yes 0.043 Rain Slight 05/15/2019 11:34 AM   0.008 0.008 0.134 0.307 0.307 Not Reported Not Reported
05/15/2019 07:40 PM 45.86 44.24 42.62 53.24 44.24 88.0 Not Reported 5.14 NW 4.25 NW 6.93 NW Yes 0.043 Rain Slight 05/15/2019 11:34 AM   0.016 0.016 0.134 0.311 0.311 Not Reported Not Reported
05/15/2019 07:45 PM 45.86 44.24 42.80 52.88 44.24 88.0 Not Reported 4.03 W 2.91 NE 6.93 NW No 0.000 No Precipitation 05/15/2019 11:34 AM 05/15/2019 11:44 AM 0.016 0.016 0.130 0.311 0.311 Not Reported Not Reported
05/15/2019 07:50 PM 45.68 44.06 42.44 52.88 44.24 87.0 Not Reported 1.34 SW 1.57 SW 6.49 NW Yes 0.043 Rain Slight 05/15/2019 11:46 AM   0.020 0.020 0.126 0.315 0.315 Not Reported Not Reported
05/15/2019 07:55 PM 45.68 43.70 41.72 52.88 44.24 86.0 Not Reported 3.36 W 2.68 N 6.49 NW Yes 0.043 Rain Slight 05/15/2019 11:46 AM   0.020 0.020 0.122 0.315 0.315 Not Reported Not Reported
05/15/2019 08:00 PM 45.68 43.70 41.72 52.88 44.24 86.0 Not Reported 4.25 NW 4.70 NW 6.71 SW Yes 0.043 Rain Slight 05/15/2019 11:46 AM   0.028 0.028 0.110 0.323 0.323 Not Reported Not Reported
05/15/2019 08:05 PM 45.86 43.88 41.90 52.88 44.24 85.0 Not Reported 2.91 NW 2.46 W 6.71 SW Yes 0.043 Rain Slight 05/15/2019 11:46 AM   0.031 0.031 0.110 0.323 0.323 Not Reported Not Reported
05/15/2019 08:10 PM 45.68 43.70 41.54 52.88 44.24 85.0 Not Reported 3.13 W 3.13 W 4.92 W Yes 0.043 Rain Slight 05/15/2019 12:08 PM   0.035 0.035 0.110 0.331 0.331 Not Reported Not Reported
05/15/2019 08:15 PM 45.32 43.52 41.54 52.88 44.24 86.0 Not Reported 2.91 S 0.22 NW 4.92 W No 0.000 No Precipitation 05/15/2019 12:08 PM 05/15/2019 12:13 PM 0.031 0.035 0.102 0.331 0.331 Not Reported Not Reported
05/15/2019 08:20 PM 45.68 43.52 41.36 52.88 44.24 84.0 Not Reported 4.03 N 4.03 NW 6.04 W Yes 0.043 Rain Slight 05/15/2019 12:16 PM   0.035 0.039 0.102 0.335 0.335 Not Reported Not Reported
05/15/2019 08:25 PM 45.50 43.52 41.36 52.70 44.24 85.0 Not Reported 3.80 SW 1.79 N 6.04 W Yes 0.043 Rain Slight 05/15/2019 12:23 PM   0.039 0.039 0.102 0.335 0.335 Not Reported Not Reported
05/15/2019 08:30 PM 45.50 43.34 41.18 52.70 44.24 85.0 Not Reported 3.13 W 2.01 SW 8.28 SW No 0.000 No Precipitation 05/15/2019 12:23 PM 05/15/2019 12:28 PM 0.035 0.039 0.102 0.335 0.335 Not Reported Not Reported
05/15/2019 08:35 PM 45.32 43.16 40.82 52.34 44.24 84.0 Not Reported 2.91 E 5.14 W 8.28 SW Yes 0.043 Rain Slight 05/15/2019 12:31 PM   0.035 0.043 0.102 0.343 0.343 Not Reported Not Reported
05/15/2019 08:40 PM 45.32 43.16 41.00 52.16 44.24 84.0 Not Reported 2.46 NW 3.58 N 8.05 NW Yes 0.043 Rain Slight 05/15/2019 12:36 PM   0.035 0.051 0.102 0.343 0.343 Not Reported Not Reported
05/15/2019 08:45 PM 45.32 43.34 41.18 52.16 44.24 85.0 Not Reported 2.24 W 1.12 NW 8.05 NW No 0.000 No Precipitation 05/15/2019 12:36 PM 05/15/2019 12:41 PM 0.035 0.051 0.102 0.343 0.343 Not Reported Not Reported
05/15/2019 08:50 PM 45.32 43.34 41.36 52.16 44.24 85.0 Not Reported 4.47 SW 4.03 SW 5.82 W Yes 0.043 Rain Slight 05/15/2019 12:47 PM   0.035 0.055 0.102 0.350 0.350 Not Reported Not Reported
05/15/2019 08:55 PM 45.14 43.34 41.36 51.98 44.24 85.0 Not Reported 3.80 NW 3.13 SW 5.82 W Yes 0.043 Rain Slight 05/15/2019 12:53 PM   0.035 0.059 0.102 0.350 0.354 Not Reported Not Reported
05/15/2019 09:00 PM 44.96 43.16 41.18 51.62 44.24 86.0 Not Reported 2.24 E 1.34 SE 6.26 NW Yes 0.043 Rain Slight 05/15/2019 12:58 PM   0.035 0.063 0.102 0.343 0.354 Not Reported Not Reported
05/15/2019 09:05 PM 45.14 43.16 41.00 51.62 44.24 85.0 Not Reported 4.47 NW 3.36 S 6.26 NW No 0.000 No Precipitation 05/15/2019 12:58 PM 05/15/2019 01:03 PM 0.031 0.063 0.102 0.343 0.354 Not Reported Not Reported
05/15/2019 09:10 PM 45.14 42.98 40.82 51.44 44.24 85.0 Not Reported 1.79 SE 1.12 SE 6.26 NE Yes 0.043 Rain Slight 05/15/2019 01:09 PM   0.031 0.067 0.102 0.343 0.362 Not Reported Not Reported
05/15/2019 09:15 PM 45.14 43.16 41.00 51.44 44.24 85.0 Not Reported 3.13 W 3.58 NW 6.26 NE No 0.000 No Precipitation 05/15/2019 01:09 PM 05/15/2019 01:14 PM 0.031 0.067 0.098 0.335 0.362 Not Reported Not Reported
05/15/2019 09:20 PM 45.32 43.16 41.00 51.44 44.24 84.0 Not Reported 2.91 NW 2.68 NW 5.37 W Yes 0.043 Rain Slight 05/15/2019 01:19 PM   0.031 0.071 0.098 0.335 0.362 Not Reported Not Reported
05/15/2019 09:25 PM 44.96 42.98 40.82 51.44 44.24 85.0 Not Reported 2.46 SE 0.67 NE 5.37 W No 0.000 No Precipitation 05/15/2019 01:19 PM 05/15/2019 01:24 PM 0.028 0.071 0.091 0.335 0.362 Not Reported Not Reported
05/15/2019 09:30 PM 44.78 43.16 41.36 51.44 44.24 87.0 Not Reported 0.89 NW 2.24 NW 3.13 N No 0.000 No Precipitation 05/15/2019 01:19 PM 05/15/2019 01:24 PM 0.028 0.071 0.091 0.335 0.362 Not Reported Not Reported
05/15/2019 09:35 PM 44.60 42.98 41.00 51.44 44.24 87.0 Not Reported 1.34 W 2.91 SE 3.13 N No 0.000 No Precipitation 05/15/2019 01:19 PM 05/15/2019 01:24 PM 0.020 0.071 0.091 0.331 0.362 Not Reported Not Reported
05/15/2019 09:40 PM 44.78 42.98 41.18 51.44 44.24 87.0 Not Reported 1.12 E 0.45 E 4.70 SW Yes 0.043 Rain Slight 05/15/2019 01:40 PM   0.020 0.075 0.091 0.331 0.370 Not Reported Not Reported
05/15/2019 09:45 PM 44.96 43.16 41.18 51.44 44.24 86.0 Not Reported 5.59 E 1.34 N 4.70 SW No 0.000 No Precipitation 05/15/2019 01:40 PM 05/15/2019 01:45 PM 0.020 0.075 0.083 0.331 0.370 Not Reported Not Reported
05/15/2019 09:50 PM 44.78 43.34 41.72 51.44 44.24 88.0 Not Reported 1.12 W 1.57 W 7.61 E No 0.000 No Precipitation 05/15/2019 01:40 PM 05/15/2019 01:45 PM 0.020 0.075 0.083 0.323 0.370 Not Reported Not Reported
05/15/2019 09:55 PM 44.78 42.98 41.18 51.44 44.24 86.0 Not Reported 3.13 SE 0.22 N 7.61 E No 0.000 No Precipitation 05/15/2019 01:40 PM 05/15/2019 01:45 PM 0.016 0.075 0.079 0.323 0.370 Not Reported Not Reported
05/15/2019 10:00 PM 44.60 43.16 41.54 51.44 44.24 88.0 Not Reported 1.57 N 0.22 NW 5.59 NW No 0.000 No Precipitation 05/15/2019 01:40 PM 05/15/2019 01:45 PM 0.008 0.075 0.079 0.323 0.370 Not Reported Not Reported
05/15/2019 10:05 PM 44.78 42.80 40.64 51.26 44.24 85.0 Not Reported 4.47 SE 1.12 S 5.59 NW No 0.000 No Precipitation 05/15/2019 01:40 PM 05/15/2019 01:45 PM 0.008 0.075 0.075 0.323 0.370 Not Reported Not Reported
05/15/2019 10:10 PM 44.96 42.80 40.64 51.26 44.24 84.0 Not Reported 2.91 W 2.01 S 6.04 SE Yes 0.043 Rain Slight 05/15/2019 02:06 PM   0.008 0.079 0.079 0.331 0.374 Not Reported Not Reported
05/15/2019 10:15 PM 44.78 42.80 40.64 51.26 44.24 85.0 Not Reported 2.68 W 2.24 W 6.04 SE No 0.000 No Precipitation 05/15/2019 02:06 PM 05/15/2019 02:11 PM 0.008 0.075 0.079 0.331 0.374 Not Reported Not Reported
05/15/2019 10:20 PM 44.60 42.44 40.28 50.72 44.24 84.0 Not Reported 4.03 W 4.92 W 4.92 W No 0.000 No Precipitation 05/15/2019 02:06 PM 05/15/2019 02:11 PM 0.008 0.075 0.079 0.323 0.374 Not Reported Not Reported
05/15/2019 10:25 PM 44.60 42.44 40.28 50.18 44.24 84.0 Not Reported 3.13 W 1.57 NW 4.92 W Yes 0.043 Rain Slight 05/15/2019 02:24 PM   0.008 0.079 0.083 0.331 0.374 Not Reported Not Reported
05/15/2019 10:30 PM 44.60 42.62 40.64 49.82 44.24 85.0 Not Reported 2.68 NW 0.45 W 4.70 NW No 0.000 No Precipitation 05/15/2019 02:24 PM 05/15/2019 02:29 PM 0.008 0.075 0.083 0.323 0.374 Not Reported Not Reported
05/15/2019 10:35 PM 44.42 42.44 40.46 49.64 44.24 86.0 Not Reported 2.68 SW 4.92 S 4.70 NW No 0.000 No Precipitation 05/15/2019 02:24 PM 05/15/2019 02:29 PM 0.008 0.071 0.083 0.323 0.374 Not Reported Not Reported
05/15/2019 10:40 PM 44.60 42.62 40.46 49.28 44.24 84.0 Not Reported 3.13 SW 2.91 W 6.93 W Yes 0.043 Rain Slight 05/15/2019 02:38 PM   0.008 0.071 0.083 0.331 0.382 Not Reported Not Reported
05/15/2019 10:45 PM 44.24 42.26 40.28 49.10 44.24 85.0 Not Reported 3.13 SW 5.37 SW 6.93 W No 0.000 No Precipitation 05/15/2019 02:38 PM 05/15/2019 02:43 PM 0.008 0.071 0.083 0.323 0.382 Not Reported Not Reported
05/15/2019 10:50 PM 44.06 42.26 40.28 48.92 44.06 86.0 Not Reported 4.25 NW 2.46 N 5.59 W Yes 0.043 Rain Slight 05/15/2019 02:45 PM   0.016 0.071 0.091 0.331 0.382 Not Reported Not Reported
05/15/2019 10:55 PM 44.06 42.26 40.46 48.74 43.88 86.0 Not Reported 1.34 W 2.24 SW 5.59 W Yes 0.043 Rain Slight 05/15/2019 02:54 PM   0.020 0.071 0.091 0.331 0.390 Not Reported Not Reported
05/15/2019 11:00 PM 44.24 42.62 40.64 48.74 43.88 86.0 Not Reported 2.01 S 1.12 W 5.14 W Yes 0.043 Rain Slight 05/15/2019 03:00 PM   0.020 0.071 0.098 0.331 0.394 Not Reported Not Reported
05/15/2019 11:05 PM 44.06 42.26 40.28 48.74 43.88 86.0 Not Reported 0.89 S 0.45 S 5.14 W Yes 0.043 Rain Slight 05/15/2019 03:00 PM   0.028 0.071 0.102 0.331 0.394 Not Reported Not Reported
05/15/2019 11:10 PM 43.70 42.26 40.64 48.74 43.70 88.0 Not Reported 2.24 NE 3.58 E 4.70 NE Yes 0.043 Rain Slight 05/15/2019 03:00 PM   0.028 0.071 0.102 0.335 0.402 Not Reported Not Reported
05/15/2019 11:15 PM 43.70 42.26 40.64 48.74 43.70 88.0 Not Reported 1.57 SE 0.00 W 4.70 NE Yes 0.043 Rain Slight 05/15/2019 03:00 PM   0.031 0.075 0.110 0.335 0.402 Not Reported Not Reported
05/15/2019 11:20 PM 43.70 42.44 41.00 48.74 43.70 90.0 Not Reported 1.12 NW 1.34 NW 2.24 SE Yes 0.043 Rain Slight 05/15/2019 03:00 PM   0.035 0.075 0.110 0.335 0.409 Not Reported Not Reported
05/15/2019 11:25 PM 43.52 42.26 41.00 48.74 43.34 90.0 Not Reported 0.00 E 1.79 N 2.24 SE Yes 0.085 Rain Moderate 05/15/2019 03:00 PM   0.039 0.079 0.122 0.335 0.413 Not Reported Not Reported
05/15/2019 11:35 PM 42.98 41.90 40.82 48.74 42.98 91.0 Not Reported 1.12 N 0.22 SE 2.68 SE Yes 0.043 Rain Slight 05/15/2019 03:32 PM   0.039 0.079 0.126 0.335 0.421 Not Reported Not Reported
05/15/2019 11:40 PM 42.98 42.08 41.00 48.74 42.98 92.0 Not Reported 2.91 NE 3.13 E 3.36 NW Yes 0.085 Rain Moderate 05/15/2019 03:32 PM   0.043 0.083 0.134 0.343 0.429 Not Reported Not Reported
05/15/2019 11:45 PM 42.80 41.72 40.82 48.74 42.80 92.0 Not Reported 2.01 W 1.57 SW 3.36 NW Yes 0.085 Rain Moderate 05/15/2019 03:32 PM   0.055 0.091 0.142 0.343 0.433 Not Reported Not Reported
05/15/2019 11:50 PM 43.16 41.90 40.82 48.74 42.80 91.0 Not Reported 1.34 W 0.89 NW 5.37 NE Yes 0.043 Rain Slight 05/15/2019 03:32 PM   0.055 0.091 0.146 0.343 0.441 Not Reported Not Reported
05/15/2019 11:55 PM 43.16 41.72 40.10 48.74 42.80 89.0 Not Reported 2.24 W 1.12 W 5.37 NE Yes 0.043 Rain Slight 05/15/2019 03:52 PM   0.055 0.091 0.150 0.350 0.441 Not Reported Not Reported